.
WxDataArchive / Data Records for 2016-03-11
2016-03-10 March 2016 2016-03-12

Data Records for Friday, 11 March 2016

Time	Temp	Chill	HIndex	Humid	Dewpt	 Wind 	HiWind	WindDir	Rain 	Barom
-----	----	-----	------	-----	-----	------	------	-------	-----	-----
00:00	43.5	43.5	43.5	85	39.3	0	2	292	0.00	30.135 
00:05	43.3	43.3	43.3	85	39.1	0	2	292	0.00	30.135 
00:10	43.3	43.3	43.3	85	39.1	0	2	292	0.00	30.135 
00:15	43.2	43.2	43.2	86	39.3	0	2	292	0.00	30.141 
00:20	43.2	43.2	43.2	86	39.3	1	3	292	0.00	30.141 
00:25	43.2	43.2	43.2	86	39.3	0	2	292	0.00	30.141 
00:30	43.1	43.1	43.1	86	39.2	0	1	292	0.00	30.158 
00:35	43.1	43.1	43.1	86	39.2	0	2	292	0.00	30.158 
00:40	42.9	42.9	42.9	86	39.0	0	3	292	0.00	30.158 
00:45	42.9	42.9	42.9	86	39.0	0	1	292	0.00	30.155 
00:50	42.8	42.8	42.8	86	38.9	0	2	292	0.00	30.155 
00:55	42.6	42.6	42.6	87	39.0	0	2	292	0.00	30.155 
01:00	42.6	42.6	42.6	87	39.0	0	1	292	0.00	30.166 
01:05	42.5	42.5	42.5	87	38.9	0	3	292	0.00	30.166 
01:10	42.5	42.5	42.5	87	38.9	0	2	292	0.00	30.166 
01:15	42.3	42.3	42.3	87	38.7	0	2	292	0.00	30.177 
01:20	42.3	42.3	42.3	87	38.7	0	1	292	0.00	30.177 
01:25	42.2	42.2	42.2	87	38.6	0	2	292	0.00	30.177 
01:30	42.1	42.1	42.1	87	38.5	0	1	292	0.00	30.180 
01:35	42.1	42.1	42.1	88	38.8	0	2	292	0.00	30.180 
01:40	41.9	41.9	41.9	88	38.6	0	3	292	0.00	30.180 
01:45	41.9	41.9	41.9	88	38.6	0	1	292	0.00	30.186 
01:50	41.8	41.8	41.8	88	38.5	0	2	292	0.00	30.186 
01:55	41.8	41.8	41.8	88	38.5	0	1	292	0.00	30.186 
02:00	41.6	41.6	41.6	88	38.3	0	1	292	0.00	30.185 
02:05	41.6	41.6	41.6	88	38.3	0	2	292	0.00	30.185 
02:10	41.5	41.5	41.5	88	38.2	0	1	292	0.00	30.185 
02:15	41.3	41.3	41.3	88	38.0	0	1	292	0.00	30.187 
02:20	41.3	41.3	41.3	88	38.0	0	1	292	0.00	30.187 
02:25	41.2	41.2	41.2	88	37.9	0	3	292	0.00	30.187 
02:30	41.1	41.1	41.1	89	38.1	0	2	292	0.00	30.196 
02:35	41.1	41.1	41.1	89	38.1	0	3	292	0.00	30.196 
02:40	40.9	40.9	40.9	89	37.9	0	2	292	0.00	30.196 
02:45	40.9	40.9	40.9	89	37.9	1	3	292	0.00	30.202 
02:50	40.8	40.8	40.8	89	37.8	0	2	292	0.00	30.202 
02:55	40.6	40.6	40.6	89	37.6	0	1	292	0.00	30.202 
03:00	40.5	40.5	40.5	89	37.5	0	1	292	0.00	30.192 
03:05	40.3	40.3	40.3	89	37.3	0	1	292	0.00	30.192 
03:10	40.2	40.2	40.2	89	37.2	0	0	---	0.00	30.192 
03:15	40.1	40.1	40.1	89	37.1	0	0	---	0.00	30.200 
03:20	40.1	40.1	40.1	89	37.1	0	0	---	0.00	30.200 
03:25	39.9	39.9	39.9	89	36.9	0	0	---	0.00	30.200 
03:30	39.8	39.8	39.8	90	37.1	0	0	---	0.00	30.189 
03:35	39.6	39.6	39.6	90	36.9	0	0	---	0.00	30.189 
03:40	39.5	39.5	39.5	90	36.8	0	0	---	0.00	30.189 
03:45	39.5	39.5	39.5	90	36.8	0	0	---	0.00	30.187 
03:50	39.3	39.3	39.3	90	36.6	0	1	292	0.00	30.187 
03:55	39.2	39.2	39.2	90	36.5	0	0	---	0.00	30.187 
04:00	39.1	39.1	39.1	90	36.4	0	0	---	0.00	30.195 
04:05	39.1	39.1	39.1	90	36.4	0	1	292	0.00	30.195 
04:10	38.9	38.9	38.9	90	36.2	0	1	292	0.00	30.195 
04:15	38.9	38.9	38.9	91	36.5	0	2	292	0.00	30.210 
04:20	38.9	38.9	38.9	91	36.5	0	1	292	0.00	30.210 
04:25	38.8	38.8	38.8	91	36.4	0	1	292	0.00	30.210 
04:30	38.8	38.8	38.8	91	36.4	0	1	292	0.00	30.210 
04:35	38.6	38.6	38.6	91	36.2	0	2	292	0.00	30.210 
04:40	38.6	38.6	38.6	91	36.2	0	2	292	0.00	30.210 
04:45	38.5	38.5	38.5	91	36.1	0	2	292	0.00	30.219 
04:50	38.5	38.5	38.5	91	36.1	0	2	292	0.00	30.219 
04:55	38.3	38.3	38.3	91	35.9	0	2	292	0.00	30.219 
05:00	38.3	38.3	38.3	91	35.9	0	2	292	0.00	30.221 
05:05	38.3	38.3	38.3	91	35.9	0	2	292	0.00	30.221 
05:10	38.2	38.2	38.2	92	36.1	0	1	292	0.00	30.221 
05:15	38.2	38.2	38.2	92	36.1	0	2	292	0.00	30.223 
05:20	38.0	38.0	38.0	92	35.9	0	2	292	0.00	30.223 
05:25	37.9	37.9	37.9	92	35.8	0	2	292	0.00	30.223 
05:30	37.9	37.9	37.9	92	35.8	0	1	292	0.00	30.239 
05:35	37.8	37.8	37.8	92	35.7	0	1	292	0.00	30.239 
05:40	37.6	37.6	37.6	92	35.5	0	3	292	0.00	30.239 
05:45	37.6	37.6	37.6	92	35.5	0	2	292	0.00	30.254 
05:50	37.5	37.5	37.5	92	35.4	0	1	292	0.00	30.254 
05:55	37.3	37.3	37.3	92	35.2	0	1	292	0.00	30.254 
06:00	37.2	37.2	37.2	92	35.1	0	1	292	0.00	30.263 
06:05	37.0	37.0	37.0	92	34.9	0	0	---	0.00	30.263 
06:10	37.0	37.0	37.0	92	34.9	0	0	---	0.00	30.263 
06:15	36.9	36.9	36.9	92	34.8	0	1	292	0.00	30.274 
06:20	36.9	36.9	36.9	92	34.8	0	1	292	0.00	30.274 
06:25	36.8	36.8	36.8	92	34.7	0	1	292	0.00	30.274 
06:30	36.6	36.6	36.6	92	34.5	0	1	292	0.00	30.289 
06:35	36.6	36.6	36.6	92	34.5	0	1	292	0.00	30.289 
06:40	36.6	36.6	36.6	92	34.5	0	0	---	0.00	30.289 
06:45	36.6	36.6	36.6	92	34.5	0	0	---	0.00	30.296 
06:50	36.5	36.5	36.5	92	34.4	0	0	---	0.00	30.296 
06:55	36.5	36.5	36.5	92	34.4	0	0	---	0.00	30.296 
07:00	36.5	36.5	36.5	92	34.4	0	1	292	0.00	30.302 
07:05	36.5	36.5	36.5	92	34.4	0	1	292	0.00	30.302 
07:10	36.5	36.5	36.5	93	34.7	0	0	---	0.00	30.302 
07:15	36.5	36.5	36.5	92	34.4	0	0	---	0.00	30.309 
07:20	36.5	36.5	36.5	93	34.7	0	1	292	0.00	30.309 
07:25	36.6	36.6	36.6	93	34.8	0	1	292	0.00	30.309 
07:30	36.8	36.8	36.8	93	35.0	0	1	292	0.00	30.310 
07:35	36.9	36.9	36.9	93	35.1	0	1	292	0.00	30.310 
07:40	37.0	37.0	37.0	93	35.2	0	2	292	0.00	30.310 
07:45	37.2	37.2	37.2	93	35.4	0	0	---	0.00	30.318 
07:50	37.3	37.3	37.3	93	35.5	0	1	292	0.00	30.318 
07:55	37.5	37.5	37.5	93	35.7	0	1	292	0.00	30.318 
08:00	37.6	37.6	37.6	93	35.8	0	1	292	0.00	30.319 
08:05	37.8	37.8	37.8	93	36.0	0	1	292	0.00	30.319 
08:10	38.0	38.0	38.0	93	36.2	0	1	292	0.00	30.319 
08:15	38.2	38.2	38.2	93	36.4	0	1	292	0.00	30.317 
08:20	38.3	38.3	38.3	93	36.5	0	2	292	0.00	30.317 
08:25	38.6	38.6	38.6	93	36.8	0	1	292	0.00	30.317 
08:30	38.9	38.9	38.9	93	37.1	0	3	292	0.00	30.328 
08:35	39.2	39.2	39.2	93	37.3	0	1	45	0.00	30.328 
08:40	39.3	39.3	39.3	93	37.4	0	3	45	0.00	30.328 
08:45	39.6	39.6	39.6	92	37.5	0	2	45	0.00	30.335 
08:50	39.8	39.8	39.8	92	37.7	0	2	45	0.00	30.335 
08:55	40.2	40.2	40.2	92	38.1	0	3	45	0.00	30.335 
09:00	40.6	40.6	40.6	92	38.5	0	2	45	0.01	30.335 
09:05	41.1	41.1	41.1	92	39.0	0	2	45	0.00	30.335 
09:10	41.5	41.5	41.5	91	39.1	0	3	45	0.00	30.335 
09:15	41.9	41.9	41.9	90	39.2	1	4	68	0.00	30.323 
09:20	42.2	42.2	42.2	88	38.9	3	6	112	0.00	30.323 
09:25	42.6	42.6	42.6	88	39.3	1	3	112	0.00	30.323 
09:30	42.8	42.8	42.8	88	39.5	0	3	112	0.00	30.317 
09:35	43.2	43.2	43.2	87	39.6	1	4	112	0.00	30.317 
09:40	43.5	43.5	43.5	85	39.3	3	6	112	0.00	30.317 
09:45	43.6	43.6	43.6	84	39.1	2	7	90	0.00	30.315 
09:50	44.1	44.1	44.1	85	39.9	1	2	90	0.00	30.315 
09:55	44.5	44.5	44.5	84	40.0	1	4	90	0.00	30.315 
10:00	44.6	44.6	44.6	84	40.1	2	5	90	0.00	30.313 
10:05	44.9	44.9	44.9	83	40.1	1	5	90	0.00	30.313 
10:10	45.1	45.1	45.1	81	39.6	2	7	90	0.00	30.313 
10:15	44.9	44.9	44.9	80	39.1	3	6	112	0.00	30.323 
10:20	44.9	44.9	44.9	81	39.4	2	6	112	0.00	30.323 
10:25	45.1	45.1	45.1	81	39.6	2	6	90	0.00	30.323 
10:30	45.1	45.1	45.1	81	39.6	3	6	90	0.00	30.326 
10:35	45.2	45.2	45.2	81	39.7	1	4	112	0.00	30.326 
10:40	45.2	45.2	45.2	81	39.7	2	6	112	0.00	30.326 
10:45	45.2	45.2	45.2	81	39.7	0	3	112	0.00	30.331 
10:50	45.2	45.2	45.2	81	39.7	1	5	112	0.00	30.331 
10:55	45.2	45.2	45.2	80	39.4	1	3	68	0.00	30.331 
11:00	45.2	45.2	45.2	80	39.4	1	3	22	0.00	30.337 
11:05	45.2	45.2	45.2	81	39.7	1	9	68	0.00	30.337 
11:10	45.4	45.4	45.4	81	39.9	2	5	90	0.00	30.337 
11:15	45.4	45.4	45.4	81	39.9	2	4	90	0.00	30.332 
11:20	45.4	45.4	45.4	81	39.9	1	4	90	0.00	30.332 
11:25	45.5	45.5	45.5	81	40.0	2	5	90	0.00	30.332 
11:30	45.5	45.5	45.5	81	40.0	2	7	90	0.00	30.333 
11:35	45.7	45.7	45.7	81	40.2	1	7	90	0.00	30.333 
11:40	45.7	45.7	45.7	81	40.2	2	6	90	0.00	30.333 
11:45	45.5	45.5	45.5	81	40.0	1	4	90	0.00	30.335 
11:50	45.7	45.7	45.7	81	40.2	1	4	90	0.00	30.335 
11:55	45.5	45.5	45.5	81	40.0	3	6	90	0.00	30.335 
12:00	45.5	45.5	45.5	81	40.0	2	4	90	0.00	30.338 
12:05	45.5	45.5	45.5	81	40.0	3	7	90	0.00	30.338 
12:10	45.5	45.5	45.5	81	40.0	1	4	90	0.00	30.338 
12:15	45.7	45.7	45.7	81	40.2	2	5	90	0.00	30.342 
12:20	45.7	45.7	45.7	81	40.2	1	4	112	0.00	30.342 
12:25	45.5	45.5	45.5	82	40.3	2	9	90	0.00	30.342 
12:30	45.7	45.7	45.7	81	40.2	1	4	90	0.00	30.360 
12:35	45.5	45.5	45.5	81	40.0	1	4	90	0.00	30.360 
12:40	45.7	45.7	45.7	81	40.2	1	3	90	0.00	30.360 
12:45	45.7	45.7	45.7	80	39.9	2	6	90	0.00	30.364 
12:50	45.8	45.8	45.8	80	40.0	1	4	90	0.00	30.364 
12:55	46.0	46.0	46.0	80	40.2	1	4	90	0.00	30.364 
13:00	46.1	46.1	46.1	80	40.3	1	3	90	0.00	30.363 
13:05	46.2	46.2	46.2	80	40.4	0	2	90	0.00	30.363 
13:10	46.4	46.4	46.4	80	40.6	1	4	90	0.00	30.363 
13:15	46.4	46.4	46.4	79	40.2	3	6	90	0.00	30.363 
13:20	46.4	46.4	46.4	80	40.6	1	4	90	0.00	30.363 
13:25	46.8	46.8	46.8	79	40.6	0	2	90	0.00	30.363 
13:30	47.0	47.0	47.0	78	40.5	1	4	90	0.00	30.366 
13:35	47.1	47.1	47.1	78	40.6	2	6	90	0.00	30.366 
13:40	47.3	47.3	47.3	79	41.1	2	4	90	0.00	30.366 
13:45	47.3	47.3	47.3	79	41.1	1	4	90	0.00	30.357 
13:50	47.6	47.6	47.6	78	41.1	1	4	90	0.00	30.357 
13:55	48.0	48.0	48.0	78	41.5	1	3	90	0.00	30.357 
14:00	48.5	48.5	48.5	78	42.0	1	3	90	0.00	30.354 
14:05	48.8	48.8	48.8	77	41.9	1	4	90	0.00	30.354 
14:10	48.6	48.6	48.6	75	41.0	2	5	90	0.00	30.354 
14:15	48.8	48.8	48.8	77	41.9	1	5	90	0.00	30.358 
14:20	48.8	48.8	48.8	76	41.6	2	7	90	0.00	30.358 
14:25	48.8	48.8	48.8	77	41.9	2	5	90	0.00	30.358 
14:30	48.8	48.8	48.8	77	41.9	2	4	90	0.00	30.346 
14:35	48.8	48.8	48.8	77	41.9	2	5	90	0.00	30.346 
14:40	48.8	48.8	48.8	76	41.6	2	7	90	0.00	30.346 
14:45	48.8	48.8	48.8	77	41.9	1	5	90	0.00	30.341 
14:50	48.8	48.8	48.8	78	42.2	2	7	90	0.00	30.341 
14:55	48.6	48.6	48.6	77	41.7	3	7	112	0.00	30.341 
15:00	48.5	48.5	48.5	78	42.0	1	3	90	0.00	30.333 
15:05	48.6	48.6	48.6	77	41.7	1	3	90	0.00	30.333 
15:10	48.8	48.8	48.8	78	42.2	2	5	90	0.00	30.333 
15:15	48.9	48.9	48.9	78	42.3	2	5	90	0.00	30.325 
15:20	49.1	49.1	49.1	78	42.5	3	6	90	0.00	30.325 
15:25	48.6	48.6	48.6	77	41.7	3	9	90	0.00	30.325 
15:30	48.8	48.8	48.8	78	42.2	2	4	90	0.00	30.318 
15:35	49.1	49.1	49.1	78	42.5	1	3	90	0.00	30.318 
15:40	48.9	48.9	48.9	77	42.0	3	7	90	0.00	30.318 
15:45	48.6	48.6	48.6	78	42.1	3	6	90	0.00	30.320 
15:50	48.5	48.5	48.5	78	42.0	3	7	90	0.00	30.320 
15:55	48.6	48.6	48.6	79	42.4	2	7	90	0.00	30.320 
16:00	48.5	48.5	48.5	77	41.6	3	6	90	0.00	30.330 
16:05	48.2	48.2	48.2	78	41.7	3	5	90	0.00	30.330 
16:10	48.2	48.2	48.2	79	42.0	2	5	90	0.00	30.330 
16:15	48.3	48.3	48.3	79	42.1	2	4	90	0.00	30.332 
16:20	48.5	48.5	48.5	78	42.0	1	5	90	0.00	30.332 
16:25	48.5	48.5	48.5	78	42.0	2	4	68	0.00	30.332 
16:30	48.5	48.5	48.5	78	42.0	1	4	68	0.00	30.335 
16:35	48.5	48.5	48.5	79	42.3	3	6	90	0.00	30.335 
16:40	48.6	48.6	48.6	78	42.1	2	5	90	0.00	30.335 
16:45	48.8	48.8	48.8	79	42.6	2	5	90	0.00	30.332 
16:50	48.5	48.5	48.5	77	41.6	3	6	68	0.00	30.332 
16:55	48.2	48.2	48.2	79	42.0	1	5	68	0.00	30.332 
17:00	48.2	48.2	48.2	79	42.0	2	5	90	0.00	30.333 
17:05	48.0	48.0	48.0	79	41.8	3	6	90	0.00	30.333 
17:10	47.7	47.7	47.7	79	41.5	3	6	90	0.00	30.333 
17:15	47.4	47.4	47.4	80	41.5	2	4	90	0.00	30.335 
17:20	47.3	47.3	47.3	80	41.4	2	5	90	0.00	30.335 
17:25	47.1	47.1	47.1	80	41.3	2	7	112	0.00	30.335 
17:30	47.1	47.1	47.1	80	41.3	2	6	112	0.00	30.335 
17:35	47.1	47.1	47.1	80	41.3	1	5	112	0.00	30.335 
17:40	47.0	47.0	47.0	80	41.2	2	5	112	0.00	30.335 
17:45	47.0	47.0	47.0	81	41.5	2	5	112	0.00	30.333 
17:50	47.0	47.0	47.0	80	41.2	2	4	112	0.00	30.333 
17:55	46.8	46.8	46.8	80	41.0	2	4	90	0.00	30.333 
18:00	46.8	46.8	46.8	81	41.3	1	5	90	0.00	30.335 
18:05	46.8	46.8	46.8	81	41.3	2	4	90	0.00	30.335 
18:10	46.8	46.8	46.8	81	41.3	1	5	90	0.00	30.335 
18:15	46.7	46.7	46.7	81	41.2	2	4	90	0.00	30.325 
18:20	46.5	46.5	46.5	81	41.0	1	3	90	0.00	30.325 
18:25	46.5	46.5	46.5	81	41.0	1	3	90	0.00	30.325 
18:30	46.4	46.4	46.4	81	40.9	1	3	90	0.00	30.333 
18:35	46.2	46.2	46.2	81	40.7	1	3	90	0.00	30.333 
18:40	46.2	46.2	46.2	81	40.7	2	4	90	0.00	30.333 
18:45	46.0	46.0	46.0	82	40.8	1	2	90	0.00	30.334 
18:50	45.8	45.8	45.8	82	40.6	1	3	90	0.00	30.334 
18:55	45.7	45.7	45.7	83	40.8	1	3	90	0.00	30.334 
19:00	45.4	45.4	45.4	83	40.5	1	3	90	0.00	30.333 
19:05	45.1	45.1	45.1	84	40.6	1	2	90	0.00	30.333 
19:10	44.9	44.9	44.9	84	40.4	1	2	90	0.00	30.333 
19:15	44.6	44.6	44.6	85	40.4	0	2	90	0.00	30.328 
19:20	44.5	44.5	44.5	85	40.3	0	1	90	0.00	30.328 
19:25	44.2	44.2	44.2	85	40.0	0	1	90	0.00	30.328 
19:30	44.1	44.1	44.1	86	40.2	0	1	90	0.00	30.326 
19:35	43.9	43.9	43.9	86	40.0	0	1	90	0.00	30.326 
19:40	43.6	43.6	43.6	86	39.7	0	1	90	0.00	30.326 
19:45	43.5	43.5	43.5	87	39.9	0	2	90	0.00	30.320 
19:50	43.3	43.3	43.3	87	39.7	0	1	90	0.00	30.320 
19:55	43.2	43.2	43.2	87	39.6	0	1	90	0.00	30.320 
20:00	43.1	43.1	43.1	87	39.5	0	2	90	0.00	30.323 
20:05	42.9	42.9	42.9	88	39.6	0	2	90	0.00	30.323 
20:10	42.8	42.8	42.8	88	39.5	0	1	90	0.00	30.323 
20:15	42.6	42.6	42.6	88	39.3	0	0	---	0.00	30.320 
20:20	42.3	42.3	42.3	88	39.0	0	0	---	0.00	30.320 
20:25	42.1	42.1	42.1	88	38.8	0	1	90	0.00	30.320 
20:30	42.1	42.1	42.1	88	38.8	0	1	90	0.00	30.323 
20:35	41.9	41.9	41.9	89	38.9	0	1	90	0.00	30.323 
20:40	41.8	41.8	41.8	89	38.8	0	2	90	0.00	30.323 
20:45	41.5	41.5	41.5	89	38.5	0	0	---	0.00	30.323 
20:50	41.3	41.3	41.3	89	38.3	0	1	90	0.00	30.323 
20:55	41.2	41.2	41.2	89	38.2	0	1	90	0.00	30.323 
21:00	41.1	41.1	41.1	89	38.1	0	0	---	0.00	30.323 
21:05	40.9	40.9	40.9	90	38.2	0	2	90	0.00	30.323 
21:10	40.9	40.9	40.9	90	38.2	0	1	90	0.00	30.323 
21:15	40.9	40.9	40.9	90	38.2	0	1	90	0.00	30.320 
21:20	40.8	40.8	40.8	90	38.1	0	1	90	0.00	30.320 
21:25	40.6	40.6	40.6	90	37.9	0	0	---	0.00	30.320 
21:30	40.5	40.5	40.5	91	38.1	0	0	---	0.00	30.318 
21:35	40.3	40.3	40.3	91	37.9	0	1	90	0.00	30.318 
21:40	40.2	40.2	40.2	91	37.8	0	0	---	0.00	30.318 
21:45	40.2	40.2	40.2	91	37.8	0	0	---	0.00	30.320 
21:50	40.1	40.1	40.1	91	37.7	0	1	90	0.00	30.320 
21:55	40.1	40.1	40.1	91	37.7	0	1	90	0.00	30.320 
22:00	40.2	40.2	40.2	91	37.8	0	2	90	0.00	30.318 
22:05	40.1	40.1	40.1	92	38.0	0	2	90	0.00	30.318 
22:10	40.1	40.1	40.1	91	37.7	0	1	90	0.00	30.318 
22:15	39.9	39.9	39.9	92	37.8	0	1	90	0.00	30.311 
22:20	39.8	39.8	39.8	92	37.7	0	2	90	0.00	30.311 
22:25	39.8	39.8	39.8	92	37.7	1	3	90	0.00	30.311 
22:30	39.8	39.8	39.8	92	37.7	1	3	90	0.00	30.305 
22:35	39.6	39.6	39.6	92	37.5	1	3	90	0.00	30.305 
22:40	39.5	39.5	39.5	92	37.4	0	2	90	0.00	30.305 
22:45	39.3	39.3	39.3	92	37.2	0	1	90	0.00	30.313 
22:50	39.3	39.3	39.3	92	37.2	0	2	90	0.00	30.313 
22:55	39.2	39.2	39.2	92	37.1	0	0	---	0.00	30.313 
23:00	39.1	39.1	39.1	92	37.0	0	2	90	0.00	30.318 
23:05	38.9	38.9	38.9	92	36.8	1	3	90	0.00	30.318 
23:10	38.9	38.9	38.9	92	36.8	1	2	90	0.00	30.318 
23:15	38.9	38.9	38.9	92	36.8	0	2	90	0.00	30.320 
23:20	38.8	38.8	38.8	92	36.7	0	2	90	0.00	30.320 
23:25	38.6	38.6	38.6	92	36.5	0	3	90	0.00	30.320 
23:30	38.6	38.6	38.6	92	36.5	0	2	90	0.00	30.318 
23:35	38.5	38.5	38.5	92	36.4	0	2	90	0.00	30.318 
23:40	38.3	38.3	38.3	92	36.2	0	1	90	0.00	30.318 
23:45	38.2	38.2	38.2	92	36.1	0	1	90	0.00	30.313 
23:50	38.0	38.0	38.0	92	35.9	0	2	90	0.00	30.313 
23:55	37.9	37.9	37.9	92	35.8	0	0	---	0.00	30.313 

CoCoRaHS
IN-AL-39
A2 Web Hosting
Creative Commons License
GoDaddy
search engine by freefind advanced

loaded 2018-11-18 11:20:50 • last modified 2010-11-18 10:43:29
Privacy PolicyDisclaimer
• wx.awcolley.com is powered by PmWiki v.2002016 •
• all content (unless otherwise noted) © 2018 A W Colley